Laurel Lake, New Jersey
Current Conditions -  °F | °C
As of 3:54 PM on Friday 19 Dec 2014 (Local Time) from KMIV Reporting Station
Clear Clear  
Wind Chill: 35°   Ceiling: Unl
Heat Index: 41°   Visibility: 10mi
Dew Point: 23°   Wind: 10mph
Humidity: 49%   Direction: 290°WNW
Pressure: 30.1"   Gusts: NA
Location:  39.3323°N, 74.9928°W
Report Text: KMIV 192054Z AUTO 29009KT 10SM CLR 05/M05 A3010 RMK AO2 SLP191 T00501050 53007
Loading
Personal Weather Stations






























Interactive Weather Map New forecast layout! Learn more

10-Day Weather Forecast

Advertisements
Track Severe Weather on mobile